Time;durP1;ratioP1;P1;durP2;ratioP2;P2;SDS_P1;SDS_P2;PMS_P1;PMS_P2;Temp;Humidity;BMP_temperature;BMP_pressure;BME280_temperature;BME280_humidity;BME280_pressure;Samples;Min_cycle;Max_cycle;Signal;HPM_P1;HPM_P2
2022/03/29 18:27:38;;;;;;;61.60;32.72;;;;;;;;;;7247630;19;20014;-75
2022/03/29 22:02:38;;;;;;;86.90;37.83;;;;;;;;;;7253939;19;20301;-82
2022/03/29 22:05:03;;;;;;;107.20;41.40;;;;;;;;;;7295975;19;20006;-82
2022/03/29 22:07:29;;;;;;;93.07;39.13;;;;;;;;;;7370717;19;20007;-79
2022/03/29 22:09:54;;;;;;;97.17;41.03;;;;;;;;;;7320502;19;20006;-78
2022/03/29 22:12:19;;;;;;;96.32;42.50;;;;;;;;;;7375401;19;20280;-78
2022/03/29 22:14:44;;;;;;;95.33;41.93;;;;;;;;;;7354401;19;20011;-82
2022/03/29 22:17:09;;;;;;;89.00;40.13;;;;;;;;;;7352166;19;20294;-79
2022/03/29 22:19:35;;;;;;;86.18;39.75;;;;;;;;;;7352033;19;20766;-79
2022/03/29 22:22:00;;;;;;;88.33;39.73;;;;;;;;;;7359917;19;20006;-79
2022/03/29 22:24:27;;;;;;;94.70;41.50;;;;;;;;;;7374553;19;20294;-82
2022/03/29 22:26:52;;;;;;;85.85;39.50;;;;;;;;;;7358296;19;20011;-80
2022/03/29 22:29:18;;;;;;;89.93;40.10;;;;;;;;;;7355731;19;20017;-80
2022/03/29 22:31:43;;;;;;;92.05;40.60;;;;;;;;;;7366816;19;20094;-82
2022/03/29 22:34:08;;;;;;;81.33;37.53;;;;;;;;;;7353069;19;20086;-79
2022/03/29 22:36:33;;;;;;;86.47;40.67;;;;;;;;;;7366074;19;20275;-78
2022/03/29 22:38:58;;;;;;;80.78;37.17;;;;;;;;;;7383938;19;20037;-80
2022/03/29 22:41:24;;;;;;;84.32;38.72;;;;;;;;;;7378961;19;20082;-79
2022/03/29 22:43:49;;;;;;;85.22;38.63;;;;;;;;;;7362563;19;20018;-78
2022/03/29 22:46:14;;;;;;;84.05;37.20;;;;;;;;;;7381010;19;20078;-80
2022/03/29 22:48:40;;;;;;;82.30;39.20;;;;;;;;;;7353040;19;20014;-79
2022/03/29 22:51:05;;;;;;;78.40;36.80;;;;;;;;;;7381186;19;20263;-79
2022/03/29 22:53:30;;;;;;;81.60;37.30;;;;;;;;;;7379734;19;20790;-78
2022/03/29 22:57:15;;;;;;;75.97;36.73;;;;;;;;;;7378487;19;20255;-80
2022/03/29 22:58:40;;;;;;;75.32;36.92;;;;;;;;;;7377756;19;20893;-80
2022/03/29 23:01:06;;;;;;;78.47;36.70;;;;;;;;;;7375994;19;20010;-82
2022/03/29 23:03:31;;;;;;;78.40;37.55;;;;;;;;;;7350042;19;20304;-82
2022/03/29 23:05:56;;;;;;;76.28;35.65;;;;;;;;;;7345930;19;20047;-81
2022/03/29 23:08:21;;;;;;;77.80;36.03;;;;;;;;;;7382773;19;20006;-78
2022/03/29 23:10:46;;;;;;;75.50;35.20;;;;;;;;;;7337678;19;20286;-79
2022/03/29 23:13:11;;;;;;;68.05;35.05;;;;;;;;;;7350740;19;20622;-80
2022/03/29 23:15:37;;;;;;;78.27;33.63;;;;;;;;;;7380262;19;20006;-79
2022/03/29 23:18:02;;;;;;;69.53;32.77;;;;;;;;;;7368312;19;20279;-81
2022/03/29 23:20:27;;;;;;;82.07;36.57;;;;;;;;;;7373212;19;20263;-78
2022/03/29 23:22:52;;;;;;;76.88;36.35;;;;;;;;;;7376114;19;20263;-81
2022/03/29 23:25:17;;;;;;;74.57;35.45;;;;;;;;;;7380566;19;20027;-78
2022/03/29 23:27:43;;;;;;;69.38;36.10;;;;;;;;;;7357792;19;20061;-79
2022/03/29 23:30:08;;;;;;;71.03;35.38;;;;;;;;;;7381501;19;20010;-80
2022/03/29 23:32:33;;;;;;;63.45;31.60;;;;;;;;;;7377179;19;20598;-78
2022/03/29 23:34:58;;;;;;;74.05;35.45;;;;;;;;;;7370708;19;20009;-79
2022/03/29 23:37:24;;;;;;;70.73;34.83;;;;;;;;;;7375990;19;20086;-78
2022/03/29 23:39:49;;;;;;;74.97;35.53;;;;;;;;;;7370364;19;20259;-78
2022/03/29 23:42:15;;;;;;;69.80;35.33;;;;;;;;;;7371510;19;20267;-80
2022/03/29 23:44:40;;;;;;;67.93;34.92;;;;;;;;;;7369125;19;20267;-78
2022/03/29 23:47:05;;;;;;;71.33;34.97;;;;;;;;;;7384404;19;20018;-77
2022/03/29 23:49:31;;;;;;;72.53;33.88;;;;;;;;;;7362775;19;20274;-79
2022/03/29 23:51:56;;;;;;;68.95;33.50;;;;;;;;;;7380846;19;20071;-77
2022/03/29 23:54:21;;;;;;;71.47;35.10;;;;;;;;;;7367735;19;20023;-78
2022/03/29 23:56:46;;;;;;;74.53;37.10;;;;;;;;;;7383580;19;20073;-78
2022/03/29 23:59:11;;;;;;;70.50;35.17;;;;;;;;;;7378167;19;20255;-80
